Lando, South Carolina
Current Conditions -  °F | °C
As of 3:35 AM on Friday 28 Nov 2014 (Local Time) from KLKR Reporting Station
Clear Clear  
Wind Chill: 26°   Ceiling: Unl
Heat Index: 32°   Visibility: 10mi
Dew Point: 23°   Wind: 7mph
Humidity: 69%   Direction: 360°N
Pressure: 30.32"   Gusts: NA
Location:  34.78°N, 81.01°W
Report Text: KLKR 280835Z AUTO 36006KT 10SM CLR 00/M05 A3032 RMK AO2
Loading
Personal Weather Stations






























Interactive Weather Map New forecast layout! Learn more

10-Day Weather Forecast

Advertisements
Track Severe Weather on mobile